createdAt,value
2019-05-14T00:02:13.054Z,8.30
2019-05-14T00:04:42.178Z,8.20
2019-05-14T00:07:08.911Z,8.20
2019-05-14T00:09:35.968Z,8.30
2019-05-14T00:12:03.029Z,8.30
2019-05-14T00:14:39.440Z,8.30
2019-05-14T00:16:59.026Z,8.20
2019-05-14T00:19:26.127Z,8.10
2019-05-14T00:21:53.150Z,8.00
2019-05-14T00:24:21.701Z,8.00
2019-05-14T00:26:48.867Z,7.90
2019-05-14T00:29:17.090Z,7.90
2019-05-14T00:31:44.133Z,7.90
2019-05-14T00:34:11.354Z,7.90
2019-05-14T00:36:38.364Z,7.80
2019-05-14T00:39:05.620Z,7.80
2019-05-14T00:41:32.677Z,7.70
2019-05-14T00:44:01.811Z,7.60
2019-05-14T00:46:28.807Z,7.50
2019-05-14T00:48:56.041Z,7.50
2019-05-14T00:51:23.108Z,7.50
2019-05-14T00:53:51.539Z,7.50
2019-05-14T00:56:19.009Z,7.40
2019-05-14T00:58:46.200Z,7.40
2019-05-14T01:01:15.659Z,7.40
2019-05-14T01:03:42.863Z,7.40
2019-05-14T01:06:11.417Z,7.40
2019-05-14T01:08:38.651Z,7.40
2019-05-14T01:11:05.708Z,7.50
2019-05-14T01:13:32.755Z,7.50
2019-05-14T01:16:01.594Z,7.60
2019-05-14T01:18:28.657Z,7.60
2019-05-14T01:20:55.672Z,7.60
2019-05-14T01:23:22.773Z,7.60
2019-05-14T01:25:51.741Z,7.50
2019-05-14T01:28:18.738Z,7.40
2019-05-14T01:30:45.790Z,7.30
2019-05-14T01:33:13.889Z,7.20
2019-05-14T01:35:42.025Z,7.10
2019-05-14T01:38:11.366Z,7.00
2019-05-14T01:40:38.153Z,7.00
2019-05-14T01:43:05.319Z,7.00
2019-05-14T01:45:32.436Z,7.00
2019-05-14T01:48:01.248Z,7.00
2019-05-14T01:50:29.470Z,7.00
2019-05-14T01:52:56.882Z,7.00
2019-05-14T01:55:23.941Z,7.00
2019-05-14T01:57:51.983Z,7.00
2019-05-14T02:00:19.415Z,7.00
2019-05-14T02:02:47.199Z,6.90
2019-05-14T02:05:15.446Z,6.90
2019-05-14T02:07:42.480Z,6.90
2019-05-14T02:10:11.655Z,6.90
2019-05-14T02:12:38.799Z,6.80
2019-05-14T02:15:06.609Z,6.80
2019-05-14T02:17:33.605Z,6.80
2019-05-14T02:20:02.158Z,6.70
2019-05-14T02:22:32.056Z,6.60
2019-05-14T02:24:59.431Z,6.60
2019-05-14T02:27:26.444Z,6.50
2019-05-14T02:29:53.515Z,6.50
2019-05-14T02:32:20.600Z,6.50
2019-05-14T02:34:49.916Z,6.50
2019-05-14T02:37:19.247Z,6.50
2019-05-14T02:39:45.493Z,6.50
2019-05-14T02:42:12.665Z,6.40
2019-05-14T02:44:40.856Z,6.40
2019-05-14T02:47:10.033Z,6.40
2019-05-14T02:49:39.849Z,6.30
2019-05-14T02:52:09.598Z,6.30
2019-05-14T02:54:35.099Z,6.30
2019-05-14T02:57:02.408Z,6.30
2019-05-14T02:59:30.522Z,6.30
2019-05-14T03:01:59.090Z,6.30
2019-05-14T03:04:26.371Z,6.40
2019-05-14T03:06:53.466Z,6.40
2019-05-14T03:09:20.710Z,6.40
2019-05-14T03:11:48.518Z,6.50
2019-05-14T03:14:15.739Z,6.50
2019-05-14T03:16:42.852Z,6.50
2019-05-14T03:19:10.202Z,6.50
2019-05-14T03:21:39.527Z,6.50
2019-05-14T03:24:09.102Z,6.40
2019-05-14T03:26:35.581Z,6.40
2019-05-14T03:29:02.781Z,6.40
2019-05-14T03:31:33.032Z,6.40
2019-05-14T03:34:03.005Z,6.30
2019-05-14T03:36:34.021Z,6.30
2019-05-14T03:38:59.397Z,6.20
2019-05-14T03:41:25.758Z,6.10
2019-05-14T03:43:52.946Z,6.00
2019-05-14T03:46:20.704Z,6.00
2019-05-14T03:48:49.231Z,5.90
2019-05-14T03:51:16.727Z,5.90
2019-05-14T03:53:56.877Z,5.90
2019-05-14T03:56:12.855Z,5.80
2019-05-14T03:58:42.332Z,5.80
2019-05-14T04:01:09.827Z,5.80
2019-05-14T04:03:39.879Z,5.70
2019-05-14T04:06:10.099Z,5.70
2019-05-14T04:08:39.902Z,5.70
2019-05-14T04:11:09.619Z,5.70
2019-05-14T04:13:40.600Z,5.70
2019-05-14T04:16:11.578Z,5.60
2019-05-14T04:18:40.884Z,5.60
2019-05-14T04:21:11.670Z,5.50
2019-05-14T04:23:42.541Z,5.50
2019-05-14T04:26:11.490Z,5.50
2019-05-14T04:28:41.856Z,5.60
2019-05-14T04:31:13.156Z,5.60
2019-05-14T04:33:43.852Z,5.60
2019-05-14T04:36:12.845Z,5.70
2019-05-14T04:38:41.125Z,6.20
2019-05-14T04:41:10.366Z,7.00
2019-05-14T04:43:40.125Z,7.90
2019-05-14T04:46:09.929Z,8.80
2019-05-14T04:48:38.671Z,9.60
2019-05-14T04:51:04.228Z,10.10
2019-05-14T04:53:31.354Z,10.20
2019-05-14T04:56:00.042Z,9.80
2019-05-14T04:58:29.755Z,9.40
2019-05-14T05:00:56.136Z,9.10
2019-05-14T05:03:23.162Z,9.00
2019-05-14T05:05:50.301Z,9.10
2019-05-14T05:08:19.870Z,9.50
2019-05-14T05:10:49.512Z,10.00
2019-05-14T05:13:18.309Z,10.70
2019-05-14T05:15:44.738Z,11.20
2019-05-14T05:18:11.794Z,11.90
2019-05-14T05:20:39.409Z,12.50
2019-05-14T05:23:08.473Z,13.00
2019-05-14T05:25:35.608Z,13.50
2019-05-14T05:28:04.549Z,13.80
2019-05-14T05:30:31.607Z,14.40
2019-05-14T05:32:59.784Z,14.60
2019-05-14T05:35:29.164Z,15.00
2019-05-14T05:37:58.234Z,15.20
2019-05-14T05:40:28.790Z,15.60
2019-05-14T05:42:58.194Z,16.10
2019-05-14T05:45:25.135Z,16.40
2019-05-14T05:47:57.448Z,16.70
2019-05-14T05:50:21.376Z,17.00
2019-05-14T05:52:49.880Z,16.90
2019-05-14T05:55:19.144Z,17.10
2019-05-14T05:57:49.192Z,17.50
2019-05-14T06:00:20.286Z,17.70
2019-05-14T06:02:48.949Z,17.90
2019-05-14T06:05:18.538Z,18.00
2019-05-14T06:07:44.897Z,18.10
2019-05-14T06:10:11.917Z,18.30
2019-05-14T06:12:39.105Z,18.40
2019-05-14T06:15:08.743Z,18.60
2019-05-14T06:17:35.554Z,18.70
2019-05-14T06:20:03.407Z,18.70
2019-05-14T06:22:30.533Z,18.20
2019-05-14T06:24:58.671Z,17.90
2019-05-14T06:27:25.986Z,18.10
2019-05-14T06:29:54.461Z,18.40
2019-05-14T06:32:21.766Z,18.60
2019-05-14T06:34:49.125Z,19.20
2019-05-14T06:37:18.836Z,19.40
2019-05-14T06:39:45.126Z,18.90
2019-05-14T06:42:12.301Z,19.30
2019-05-14T06:44:40.328Z,18.70
2019-05-14T06:47:09.271Z,19.60
2019-05-14T06:49:38.525Z,19.80
2019-05-14T06:52:05.397Z,19.10
2019-05-14T06:54:33.522Z,19.60
2019-05-14T06:57:00.542Z,20.30
2019-05-14T06:59:28.757Z,20.10
2019-05-14T07:01:58.041Z,17.90
2019-05-14T07:04:25.819Z,17.40
2019-05-14T07:06:52.791Z,18.10
2019-05-14T07:09:19.858Z,19.30
2019-05-14T07:11:48.946Z,20.60
2019-05-14T07:14:18.783Z,21.20
2019-05-14T07:16:45.296Z,21.20
2019-05-14T07:19:15.561Z,18.70
2019-05-14T07:21:41.238Z,19.00
2019-05-14T07:24:08.742Z,20.00
2019-05-14T07:26:38.503Z,20.00
2019-05-14T07:29:04.826Z,20.30
2019-05-14T07:31:31.868Z,21.50
2019-05-14T07:33:59.004Z,21.90
2019-05-14T07:36:25.996Z,22.40
2019-05-14T07:38:56.351Z,22.60
2019-05-14T07:41:21.874Z,22.90
2019-05-14T07:43:48.974Z,22.50
2019-05-14T07:46:15.979Z,22.40
2019-05-14T07:48:43.026Z,22.70
2019-05-14T07:51:10.090Z,23.00
2019-05-14T07:53:41.724Z,23.00
2019-05-14T07:56:06.018Z,23.20
2019-05-14T07:58:33.038Z,23.30
2019-05-14T08:01:00.107Z,23.00
2019-05-14T08:03:28.515Z,23.10
2019-05-14T08:05:55.741Z,23.10
2019-05-14T08:08:22.823Z,23.20
2019-05-14T08:10:49.832Z,23.50
2019-05-14T08:13:19.079Z,23.60
2019-05-14T08:15:46.376Z,23.80
2019-05-14T08:18:14.496Z,23.90
2019-05-14T08:20:41.649Z,24.00
2019-05-14T08:23:09.158Z,24.00
2019-05-14T08:25:38.785Z,24.00
2019-05-14T08:28:04.979Z,24.00
2019-05-14T08:30:32.102Z,24.30
2019-05-14T08:32:59.118Z,24.50
2019-05-14T08:35:26.090Z,24.10
2019-05-14T08:38:04.662Z,24.10
2019-05-14T08:40:22.164Z,23.10
2019-05-14T08:42:49.187Z,23.50
2019-05-14T08:45:16.264Z,23.70
2019-05-14T08:47:43.304Z,23.90
2019-05-14T08:50:10.802Z,22.90
2019-05-14T08:52:39.329Z,23.10
2019-05-14T08:55:10.971Z,23.10
2019-05-14T08:57:38.498Z,23.60
2019-05-14T09:00:13.528Z,23.60
2019-05-14T09:02:34.524Z,23.90
2019-05-14T09:05:04.343Z,23.80
2019-05-14T09:07:31.737Z,23.70
2019-05-14T09:10:00.053Z,23.70
2019-05-14T09:12:28.072Z,23.70
2019-05-14T09:14:55.357Z,23.50
2019-05-14T09:17:22.380Z,23.60
2019-05-14T09:20:01.781Z,23.70
2019-05-14T09:22:18.661Z,23.90
2019-05-14T09:24:49.178Z,24.20
2019-05-14T09:27:15.822Z,24.00
2019-05-14T09:29:42.988Z,23.90
2019-05-14T09:32:11.159Z,24.10
2019-05-14T09:34:39.327Z,24.20
2019-05-14T09:37:08.635Z,24.50
2019-05-14T09:39:35.644Z,24.50
2019-05-14T09:42:02.783Z,24.20
2019-05-14T09:44:29.940Z,23.90
2019-05-14T09:46:59.153Z,23.10
2019-05-14T09:49:28.216Z,22.90
2019-05-14T09:51:55.380Z,23.50
2019-05-14T09:54:22.564Z,23.40
2019-05-14T09:56:49.717Z,23.40
2019-05-14T09:59:18.578Z,23.10
2019-05-14T10:01:45.897Z,23.40
2019-05-14T10:04:13.036Z,23.60
2019-05-14T10:06:40.058Z,23.30
2019-05-14T10:09:08.538Z,23.70
2019-05-14T10:11:38.200Z,23.70
2019-05-14T10:14:04.854Z,23.80
2019-05-14T10:16:32.953Z,24.00
2019-05-14T10:19:00.029Z,24.00
2019-05-14T10:21:29.204Z,24.20
2019-05-14T10:23:58.042Z,24.20
2019-05-14T10:26:24.677Z,24.30
2019-05-14T10:28:51.875Z,23.90
2019-05-14T10:31:18.861Z,23.80
2019-05-14T10:33:48.346Z,23.90
2019-05-14T10:36:15.007Z,23.20
2019-05-14T10:38:42.134Z,23.90
2019-05-14T10:41:09.163Z,24.20
2019-05-14T10:43:39.271Z,24.80
2019-05-14T10:46:08.517Z,25.20
2019-05-14T10:48:35.010Z,24.80
2019-05-14T10:51:03.470Z,25.10
2019-05-14T10:53:31.042Z,24.90
2019-05-14T10:56:00.737Z,25.40
2019-05-14T10:58:29.024Z,25.40
2019-05-14T11:00:58.633Z,25.10
2019-05-14T11:03:25.263Z,24.60
2019-05-14T11:05:52.425Z,23.80
2019-05-14T11:08:19.577Z,22.80
2019-05-14T11:10:49.846Z,22.20
2019-05-14T11:13:19.019Z,21.60
2019-05-14T11:15:48.442Z,21.60
2019-05-14T11:18:14.830Z,22.10
2019-05-14T11:20:42.420Z,21.90
2019-05-14T11:23:09.619Z,21.90
2019-05-14T11:25:38.383Z,21.00
2019-05-14T11:28:05.574Z,20.60
2019-05-14T11:30:32.714Z,20.70
2019-05-14T11:32:59.736Z,20.30
2019-05-14T11:35:28.791Z,20.40
2019-05-14T11:37:55.714Z,20.60
2019-05-14T11:40:29.397Z,20.30
2019-05-14T11:42:58.954Z,20.10
2019-05-14T11:45:25.558Z,20.20
2019-05-14T11:47:52.582Z,20.40
2019-05-14T11:50:19.660Z,20.40
2019-05-14T11:52:48.401Z,20.10
2019-05-14T11:55:18.500Z,20.00
2019-05-14T11:57:44.525Z,20.20
2019-05-14T12:00:12.053Z,20.00
2019-05-14T12:02:39.093Z,20.00
2019-05-14T12:05:08.815Z,20.30
2019-05-14T12:07:36.050Z,20.30
2019-05-14T12:10:05.336Z,20.20
2019-05-14T12:12:32.365Z,20.30
2019-05-14T12:14:59.545Z,19.90
2019-05-14T12:17:29.276Z,19.60
2019-05-14T12:19:55.397Z,19.60
2019-05-14T12:22:22.430Z,19.40
2019-05-14T12:24:51.872Z,19.00
2019-05-14T12:27:19.272Z,18.90
2019-05-14T14:39:41.178Z,15.50
2019-05-14T15:11:09.206Z,14.90
2019-05-14T15:13:38.440Z,15.00
2019-05-14T15:16:05.211Z,14.90
2019-05-14T15:18:32.241Z,14.80
2019-05-14T15:20:59.294Z,14.80
2019-05-14T15:23:28.552Z,14.80
2019-05-14T15:25:55.151Z,15.00
2019-05-14T15:28:22.233Z,15.00
2019-05-14T15:30:50.050Z,15.10
2019-05-14T15:33:18.954Z,15.10
2019-05-14T15:35:48.690Z,14.90
2019-05-14T15:38:14.986Z,14.70
2019-05-14T15:40:41.960Z,14.80
2019-05-14T15:43:09.912Z,14.80
2019-05-14T15:45:37.911Z,14.80
2019-05-14T15:48:05.112Z,14.60
2019-05-14T15:50:32.766Z,14.40
2019-05-14T15:53:00.132Z,14.20
2019-05-14T15:55:28.916Z,14.40
2019-05-14T15:57:58.909Z,14.50
2019-05-14T16:00:28.984Z,14.60
2019-05-14T16:02:54.906Z,14.60
2019-05-14T16:05:21.962Z,14.60
2019-05-14T16:07:49.557Z,14.60
2019-05-14T16:10:17.028Z,14.70
2019-05-14T16:12:44.065Z,14.80
2019-05-14T16:15:11.268Z,14.70
2019-05-14T16:17:48.589Z,14.70
2019-05-14T16:20:08.959Z,14.70
2019-05-14T16:22:39.345Z,14.80
2019-05-14T16:25:08.870Z,14.80
2019-05-14T16:27:35.704Z,14.70
2019-05-14T16:30:05.249Z,14.70
2019-05-14T16:32:33.668Z,14.70
2019-05-14T16:35:00.732Z,14.80
2019-05-14T16:37:28.183Z,14.80
2019-05-14T16:39:55.417Z,14.90
2019-05-14T16:42:22.477Z,14.90
2019-05-14T16:44:49.633Z,14.90
2019-05-14T16:47:18.866Z,14.90
2019-05-14T16:49:47.699Z,14.90
2019-05-14T16:52:14.448Z,14.80
2019-05-14T16:54:41.494Z,14.90
2019-05-14T16:57:11.052Z,14.90
2019-05-14T16:59:39.531Z,14.80
2019-05-14T17:02:06.264Z,14.80
2019-05-14T17:04:33.339Z,14.80
2019-05-14T17:07:00.328Z,14.80
2019-05-14T17:09:28.195Z,14.80
2019-05-14T17:11:55.842Z,14.70
2019-05-14T17:14:23.859Z,14.70
2019-05-14T17:16:51.042Z,14.70
2019-05-14T17:19:18.824Z,14.60
2019-05-14T17:21:48.532Z,14.70
2019-05-14T17:24:14.873Z,14.60
2019-05-14T17:26:42.001Z,14.60
2019-05-14T17:29:09.104Z,14.60
2019-05-14T17:31:38.863Z,14.60
2019-05-14T17:34:04.960Z,14.60
2019-05-14T17:36:32.030Z,14.40
2019-05-14T17:38:59.188Z,14.30
2019-05-14T17:41:26.268Z,14.30
2019-05-14T17:43:53.329Z,14.20
2019-05-14T17:46:20.389Z,14.20
2019-05-14T17:48:48.603Z,14.10
2019-05-14T17:51:18.036Z,14.00
2019-05-14T17:53:48.119Z,13.90
2019-05-14T17:56:14.872Z,13.90
2019-05-14T17:58:41.900Z,13.90
2019-05-14T18:01:09.231Z,13.70
2019-05-14T18:03:36.373Z,13.70
2019-05-14T18:06:03.410Z,13.70
2019-05-14T18:08:30.482Z,13.60
2019-05-14T18:10:59.173Z,13.60
2019-05-14T18:13:26.518Z,13.60
2019-05-14T18:15:53.596Z,13.60
2019-05-14T18:18:20.792Z,13.50
2019-05-14T18:20:48.838Z,13.50
2019-05-14T18:23:18.074Z,13.50
2019-05-14T18:25:58.830Z,13.40
2019-05-14T18:28:13.642Z,13.40
2019-05-14T18:30:40.652Z,13.30
2019-05-14T18:33:08.058Z,13.20
2019-05-14T18:35:42.373Z,13.10
2019-05-14T18:38:05.054Z,13.00
2019-05-14T18:40:32.079Z,13.00
2019-05-14T18:42:59.405Z,13.00
2019-05-14T18:45:26.575Z,12.90
2019-05-14T18:47:53.734Z,12.90
2019-05-14T18:50:20.918Z,12.80
2019-05-14T18:52:48.527Z,12.80
2019-05-14T18:55:15.638Z,12.70
2019-05-14T18:57:42.636Z,12.70
2019-05-14T19:00:09.865Z,12.70
2019-05-14T19:02:39.009Z,12.60
2019-05-14T19:05:08.454Z,12.60
2019-05-14T19:07:35.236Z,12.50
2019-05-14T19:10:04.102Z,12.40
2019-05-14T19:12:31.247Z,12.20
2019-05-14T19:14:59.054Z,12.10
2019-05-14T19:17:28.316Z,12.00
2019-05-14T19:19:55.990Z,11.90
2019-05-14T19:22:23.030Z,11.70
2019-05-14T19:24:50.025Z,11.60
2019-05-14T19:27:17.151Z,11.50
2019-05-14T19:29:44.223Z,11.50
2019-05-14T19:32:11.265Z,11.40
2019-05-14T19:34:38.374Z,11.40
2019-05-14T19:37:05.502Z,11.30
2019-05-14T19:39:32.572Z,11.30
2019-05-14T19:41:59.639Z,11.20
2019-05-14T19:44:26.692Z,11.00
2019-05-14T19:46:53.733Z,10.90
2019-05-14T19:49:20.708Z,10.90
2019-05-14T19:51:48.294Z,10.90
2019-05-14T19:54:15.614Z,10.90
2019-05-14T19:56:53.371Z,10.90
2019-05-14T19:59:11.541Z,10.80
2019-05-14T20:01:38.776Z,10.80
2019-05-14T20:04:05.774Z,10.70
2019-05-14T20:06:32.814Z,10.60
2019-05-14T20:08:59.852Z,10.60
2019-05-14T20:11:28.984Z,10.60
2019-05-14T20:13:55.716Z,10.50
2019-05-14T20:16:22.756Z,10.40
2019-05-14T20:18:49.788Z,10.40
2019-05-14T20:21:17.002Z,10.00
2019-05-14T20:23:43.994Z,10.30
2019-05-14T20:26:11.036Z,10.20
2019-05-14T20:28:38.969Z,10.00
2019-05-14T20:31:09.239Z,10.00
2019-05-14T20:33:35.382Z,9.90
2019-05-14T20:36:02.436Z,9.80
2019-05-14T20:38:29.415Z,9.70
2019-05-14T20:40:58.106Z,9.80
2019-05-14T20:43:25.334Z,9.70
2019-05-14T20:45:52.443Z,9.70
2019-05-14T20:48:19.497Z,9.60
2019-05-14T20:50:46.545Z,9.60
2019-05-14T20:53:14.535Z,9.50
2019-05-14T20:55:41.548Z,9.40
2019-05-14T20:58:08.683Z,9.30
2019-05-14T21:00:35.652Z,9.40
2019-05-14T21:03:02.671Z,9.30
2019-05-14T21:05:29.682Z,9.40
2019-05-14T21:07:59.002Z,9.50
2019-05-14T21:10:25.505Z,9.40
2019-05-14T21:12:52.631Z,9.40
2019-05-14T21:15:21.434Z,9.50
2019-05-14T21:17:50.366Z,9.60
2019-05-14T21:20:18.442Z,9.60
2019-05-14T21:22:45.711Z,9.70
2019-05-14T21:25:13.451Z,9.70
2019-05-14T21:27:48.083Z,9.70
2019-05-14T21:30:09.776Z,9.70
2019-05-14T21:32:39.197Z,9.70
2019-05-14T21:35:07.399Z,9.70
2019-05-14T21:37:34.444Z,9.60
2019-05-14T21:40:01.493Z,9.50
2019-05-14T21:42:28.691Z,9.40
2019-05-14T21:44:58.243Z,9.40
2019-05-14T21:47:24.629Z,9.40
2019-05-14T21:49:51.765Z,9.40
2019-05-14T21:52:18.818Z,9.40
2019-05-14T21:54:47.933Z,9.40
2019-05-14T21:57:14.794Z,9.40
2019-05-14T21:59:41.763Z,9.40
2019-05-14T22:02:09.250Z,9.40
2019-05-14T22:04:38.336Z,9.60
2019-05-14T22:07:05.114Z,9.70
2019-05-14T22:09:32.097Z,9.70
2019-05-14T22:11:59.125Z,9.80
2019-05-14T22:14:28.240Z,9.70
2019-05-14T22:16:55.054Z,9.70
2019-05-14T22:19:22.130Z,9.50
2019-05-14T22:21:49.260Z,9.40
2019-05-14T22:24:16.334Z,9.30
2019-05-14T22:26:43.330Z,9.20
2019-05-14T22:29:10.435Z,9.20
2019-05-14T22:31:38.776Z,9.10
2019-05-14T22:34:06.072Z,9.20
2019-05-14T22:36:33.090Z,9.30
2019-05-14T22:39:00.114Z,9.30
2019-05-14T22:41:29.109Z,9.40
2019-05-14T22:43:57.600Z,9.50
2019-05-14T22:46:24.901Z,9.50
2019-05-14T22:48:51.959Z,9.30
2019-05-14T22:51:19.004Z,9.20
2019-05-14T22:53:46.052Z,9.20
2019-05-14T22:56:13.064Z,9.10
2019-05-14T22:58:40.062Z,9.10
2019-05-14T23:01:14.817Z,9.00
2019-05-14T23:03:36.101Z,8.90
2019-05-14T23:06:03.158Z,9.00
2019-05-14T23:08:30.165Z,9.10
2019-05-14T23:10:58.952Z,9.10
2019-05-14T23:13:27.995Z,9.20
2019-05-14T23:15:54.922Z,9.10
2019-05-14T23:18:21.979Z,9.00
2019-05-14T23:20:49.346Z,9.00
2019-05-14T23:23:18.506Z,8.90
2019-05-14T23:25:45.706Z,8.90
2019-05-14T23:28:12.854Z,8.90
2019-05-14T23:30:39.953Z,8.90
2019-05-14T23:33:07.025Z,8.90
2019-05-14T23:35:34.172Z,9.00
2019-05-14T23:38:01.250Z,9.00
2019-05-14T23:40:28.898Z,9.20
2019-05-14T23:42:58.617Z,9.20
2019-05-14T23:45:25.014Z,9.10
2019-05-14T23:47:52.095Z,8.90
2019-05-14T23:50:19.143Z,8.80
2019-05-14T23:52:49.077Z,8.60
2019-05-14T23:55:14.951Z,8.50
2019-05-14T23:57:42.026Z,8.40
